Time;durP1;ratioP1;P1;durP2;ratioP2;P2;SDS_P1;SDS_P2;PMS_P1;PMS_P2;Temp;Humidity;BMP_temperature;BMP_pressure;BME280_temperature;BME280_humidity;BME280_pressure;Samples;Min_cycle;Max_cycle;Signal;HPM_P1;HPM_P2
2021/11/05 00:00:43;;;;;;;;;;;24.00;28.90;;;;;;479421;248;1286;-73
2021/11/05 00:02:44;;;;;;;;;;;24.10;28.90;;;;;;479409;248;1067;-73
2021/11/05 00:04:46;;;;;;;;;;;24.00;28.90;;;;;;479441;248;1160;-73
2021/11/05 00:06:47;;;;;;;;;;;24.10;28.90;;;;;;479356;248;972;-73
2021/11/05 00:08:48;;;;;;;;;;;24.00;28.90;;;;;;479390;248;1039;-73
2021/11/05 00:10:50;;;;;;;;;;;24.00;28.90;;;;;;479445;248;1025;-73
2021/11/05 00:12:51;;;;;;;;;;;23.90;29.00;;;;;;479472;248;1177;-73
2021/11/05 00:14:52;;;;;;;;;;;23.80;29.10;;;;;;479494;248;2119;-73
2021/11/05 00:16:54;;;;;;;;;;;23.80;29.20;;;;;;479446;248;1058;-73
2021/11/05 00:18:55;;;;;;;;;;;23.70;29.10;;;;;;479577;248;1235;-73
2021/11/05 00:20:56;;;;;;;;;;;23.70;29.20;;;;;;479423;248;1151;-72
2021/11/05 00:22:58;;;;;;;;;;;23.50;29.30;;;;;;479427;248;1219;-72
2021/11/05 00:24:59;;;;;;;;;;;23.40;29.50;;;;;;479515;248;1065;-72
2021/11/05 00:27:00;;;;;;;;;;;23.20;29.60;;;;;;479487;248;1149;-72
2021/11/05 00:29:02;;;;;;;;;;;23.00;29.80;;;;;;479465;248;1191;-73
2021/11/05 00:31:03;;;;;;;;;;;22.90;29.80;;;;;;479499;248;1026;-73
2021/11/05 00:33:04;;;;;;;;;;;22.80;30.00;;;;;;479511;248;960;-73
2021/11/05 00:35:06;;;;;;;;;;;22.50;30.10;;;;;;479527;248;2173;-73
2021/11/05 00:37:07;;;;;;;;;;;22.60;30.10;;;;;;479496;248;1277;-73
2021/11/05 00:39:08;;;;;;;;;;;22.40;30.40;;;;;;479594;244;1173;-72
2021/11/05 00:41:09;;;;;;;;;;;22.60;30.20;;;;;;479518;248;1336;-72
2021/11/05 00:43:11;;;;;;;;;;;22.60;30.20;;;;;;479593;248;1166;-73
2021/11/05 00:45:13;;;;;;;;;;;22.50;30.20;;;;;;479616;248;1033;-72
2021/11/05 00:47:15;;;;;;;;;;;22.50;30.30;;;;;;479499;248;1593;-72
2021/11/05 00:49:15;;;;;;;;;;;22.60;30.10;;;;;;479543;248;1411;-72
2021/11/05 00:51:16;;;;;;;;;;;22.50;30.10;;;;;;479459;248;1208;-72
2021/11/05 00:53:17;;;;;;;;;;;22.30;30.40;;;;;;479580;248;1103;-72
2021/11/05 00:55:19;;;;;;;;;;;22.20;30.40;;;;;;479553;248;2186;-73
2021/11/05 00:57:20;;;;;;;;;;;22.20;30.60;;;;;;479550;248;1149;-72
2021/11/05 00:59:21;;;;;;;;;;;22.40;30.40;;;;;;479605;248;960;-72
2021/11/05 01:01:23;;;;;;;;;;;22.60;30.10;;;;;;479561;248;1191;-72
2021/11/05 01:03:24;;;;;;;;;;;22.70;30.00;;;;;;479576;248;1050;-72
2021/11/05 01:05:26;;;;;;;;;;;23.00;29.80;;;;;;479577;248;1163;-72
2021/11/05 01:07:27;;;;;;;;;;;23.20;29.50;;;;;;479469;248;1135;-72
2021/11/05 01:09:28;;;;;;;;;;;23.20;29.50;;;;;;479518;248;1091;-72
2021/11/05 01:11:30;;;;;;;;;;;23.20;29.50;;;;;;479556;245;1211;-72
2021/11/05 01:13:31;;;;;;;;;;;23.30;29.40;;;;;;479602;248;1102;-73
2021/11/05 01:15:32;;;;;;;;;;;23.50;29.20;;;;;;479542;248;2186;-72
2021/11/05 01:17:34;;;;;;;;;;;23.60;29.10;;;;;;479428;248;1207;-73
2021/11/05 01:19:35;;;;;;;;;;;23.70;29.00;;;;;;479589;243;1448;-73
2021/11/05 01:21:36;;;;;;;;;;;23.80;28.90;;;;;;479516;248;1204;-72
2021/11/05 01:23:38;;;;;;;;;;;23.80;28.90;;;;;;479634;248;971;-73
2021/11/05 01:25:39;;;;;;;;;;;23.80;28.80;;;;;;479514;248;1038;-72
2021/11/05 01:27:40;;;;;;;;;;;23.90;28.80;;;;;;479568;248;1147;-73
2021/11/05 01:29:42;;;;;;;;;;;23.90;28.80;;;;;;479504;248;987;-73
2021/11/05 01:31:43;;;;;;;;;;;23.90;28.80;;;;;;479441;248;1212;-73
2021/11/05 01:33:45;;;;;;;;;;;23.90;28.70;;;;;;479532;248;1073;-72
2021/11/05 01:35:46;;;;;;;;;;;24.00;28.70;;;;;;479533;248;2198;-72
2021/11/05 01:37:47;;;;;;;;;;;24.10;28.70;;;;;;479676;248;1219;-72
2021/11/05 01:39:48;;;;;;;;;;;24.10;28.60;;;;;;479641;248;1184;-72
2021/11/05 01:41:50;;;;;;;;;;;24.10;28.60;;;;;;479542;248;1202;-72
2021/11/05 01:43:51;;;;;;;;;;;24.00;28.60;;;;;;479588;248;1029;-72
2021/11/05 01:45:52;;;;;;;;;;;24.10;28.60;;;;;;479490;248;1199;-72
2021/11/05 01:47:54;;;;;;;;;;;24.00;28.60;;;;;;479566;248;1073;-72
2021/11/05 01:49:55;;;;;;;;;;;23.90;28.60;;;;;;479605;248;1061;-72
2021/11/05 01:51:56;;;;;;;;;;;23.80;28.80;;;;;;479566;248;1242;-72
2021/11/05 01:53:58;;;;;;;;;;;23.70;28.80;;;;;;479591;248;1053;-73
2021/11/05 01:55:59;;;;;;;;;;;23.60;28.90;;;;;;479533;246;2110;-73
2021/11/05 01:58:00;;;;;;;;;;;23.60;28.90;;;;;;479625;248;1255;-72
2021/11/05 02:00:02;;;;;;;;;;;23.40;29.20;;;;;;479590;248;1034;-73
2021/11/05 02:02:03;;;;;;;;;;;23.30;29.10;;;;;;479524;248;1161;-72
2021/11/05 02:04:04;;;;;;;;;;;23.10;29.30;;;;;;479611;248;1074;-72
2021/11/05 02:06:06;;;;;;;;;;;22.90;29.70;;;;;;479574;248;1269;-72
2021/11/05 02:08:07;;;;;;;;;;;22.70;29.80;;;;;;479627;248;1153;-73
2021/11/05 02:10:08;;;;;;;;;;;22.70;29.60;;;;;;479671;248;974;-73
2021/11/05 02:12:10;;;;;;;;;;;22.50;30.00;;;;;;479566;248;1174;-72
2021/11/05 02:14:11;;;;;;;;;;;22.50;30.00;;;;;;479572;248;928;-72
2021/11/05 02:16:13;;;;;;;;;;;22.50;29.90;;;;;;479420;245;2197;-73
2021/11/05 02:18:14;;;;;;;;;;;22.50;30.00;;;;;;479473;248;985;-72
2021/11/05 02:20:15;;;;;;;;;;;22.40;30.00;;;;;;479557;248;1022;-73
2021/11/05 02:22:17;;;;;;;;;;;22.30;30.10;;;;;;479497;248;1186;-72
2021/11/05 02:24:18;;;;;;;;;;;22.30;30.10;;;;;;479546;248;1156;-72
2021/11/05 02:26:19;;;;;;;;;;;22.30;30.00;;;;;;479519;248;1126;-72
2021/11/05 02:28:21;;;;;;;;;;;22.00;30.30;;;;;;479584;248;1112;-72
2021/11/05 02:30:22;;;;;;;;;;;22.20;30.20;;;;;;479574;248;1145;-72
2021/11/05 02:32:23;;;;;;;;;;;22.30;30.20;;;;;;479609;248;1249;-72
2021/11/05 02:34:25;;;;;;;;;;;22.20;30.30;;;;;;479627;248;944;-72
2021/11/05 02:36:26;;;;;;;;;;;22.60;29.90;;;;;;479560;248;2170;-72
2021/11/05 02:38:27;;;;;;;;;;;22.90;29.70;;;;;;479562;248;1081;-72
2021/11/05 02:40:29;;;;;;;;;;;23.00;29.50;;;;;;479564;248;1063;-72
2021/11/05 02:42:30;;;;;;;;;;;23.30;29.30;;;;;;479531;248;1170;-72
2021/11/05 02:44:31;;;;;;;;;;;23.30;29.10;;;;;;479607;248;1316;-72
2021/11/05 02:46:33;;;;;;;;;;;23.40;29.10;;;;;;479635;248;1212;-72
2021/11/05 02:48:34;;;;;;;;;;;23.50;29.00;;;;;;479580;248;1040;-73
2021/11/05 02:50:35;;;;;;;;;;;23.60;28.90;;;;;;479627;248;1090;-73
2021/11/05 02:52:37;;;;;;;;;;;23.60;28.80;;;;;;479549;248;1194;-72
2021/11/05 02:54:38;;;;;;;;;;;23.70;28.80;;;;;;479596;248;981;-72
2021/11/05 02:56:39;;;;;;;;;;;23.80;28.70;;;;;;479478;248;2189;-72
2021/11/05 02:58:40;;;;;;;;;;;23.80;28.70;;;;;;479593;248;988;-72
2021/11/05 03:00:45;;;;;;;;;;;23.90;28.60;;;;;;479542;248;954;-72
2021/11/05 03:02:43;;;;;;;;;;;23.80;28.60;;;;;;479437;248;1357;-73
2021/11/05 03:04:45;;;;;;;;;;;23.80;28.60;;;;;;479615;248;927;-72
2021/11/05 03:06:46;;;;;;;;;;;23.80;28.60;;;;;;479422;248;1150;-72
2021/11/05 03:08:47;;;;;;;;;;;23.90;28.50;;;;;;479510;248;1155;-73
2021/11/05 03:10:49;;;;;;;;;;;23.90;28.60;;;;;;479492;248;1199;-73
2021/11/05 03:12:50;;;;;;;;;;;23.90;28.50;;;;;;479499;248;1204;-73
2021/11/05 03:14:52;;;;;;;;;;;23.90;28.50;;;;;;479528;248;1046;-73
2021/11/05 03:16:53;;;;;;;;;;;23.80;28.60;;;;;;479449;245;2209;-73
2021/11/05 03:18:54;;;;;;;;;;;23.70;28.60;;;;;;479602;248;1195;-73
2021/11/05 03:20:56;;;;;;;;;;;23.70;28.70;;;;;;479590;248;1251;-73
2021/11/05 03:22:57;;;;;;;;;;;23.60;28.80;;;;;;479541;248;1137;-73
2021/11/05 03:24:58;;;;;;;;;;;23.60;28.80;;;;;;479550;248;1431;-73
2021/11/05 03:27:00;;;;;;;;;;;23.50;28.80;;;;;;479516;248;1679;-73
2021/11/05 03:29:01;;;;;;;;;;;23.50;28.90;;;;;;479591;248;976;-73
2021/11/05 03:31:02;;;;;;;;;;;23.30;28.90;;;;;;479574;248;965;-72
2021/11/05 03:33:04;;;;;;;;;;;23.00;29.20;;;;;;479567;248;1033;-72
2021/11/05 03:35:05;;;;;;;;;;;23.10;29.30;;;;;;479602;248;1040;-72
2021/11/05 03:37:06;;;;;;;;;;;22.80;29.40;;;;;;479524;248;2123;-72
2021/11/05 03:39:08;;;;;;;;;;;22.90;29.40;;;;;;479619;248;973;-73
2021/11/05 03:41:09;;;;;;;;;;;22.40;29.70;;;;;;479594;248;963;-73
2021/11/05 03:43:10;;;;;;;;;;;22.30;29.90;;;;;;479576;248;1083;-72
2021/11/05 03:45:12;;;;;;;;;;;22.40;29.90;;;;;;479586;248;1006;-72
2021/11/05 03:47:13;;;;;;;;;;;22.20;30.00;;;;;;479473;248;1079;-72
2021/11/05 03:49:14;;;;;;;;;;;22.30;30.00;;;;;;479550;248;986;-72
2021/11/05 03:51:16;;;;;;;;;;;22.30;30.00;;;;;;479521;248;971;-72
2021/11/05 03:53:17;;;;;;;;;;;22.10;30.00;;;;;;479562;248;1251;-73
2021/11/05 03:55:18;;;;;;;;;;;22.30;30.00;;;;;;479542;248;964;-73
2021/11/05 03:57:20;;;;;;;;;;;22.10;30.00;;;;;;479453;248;2130;-73
2021/11/05 03:59:21;;;;;;;;;;;22.10;30.10;;;;;;479527;248;986;-73
2021/11/05 04:01:22;;;;;;;;;;;22.00;30.00;;;;;;479515;248;1108;-72
2021/11/05 04:03:24;;;;;;;;;;;22.00;30.20;;;;;;479591;248;1202;-72
2021/11/05 04:05:25;;;;;;;;;;;22.10;30.00;;;;;;479529;248;1082;-72
2021/11/05 04:07:26;;;;;;;;;;;22.10;30.00;;;;;;479423;248;1178;-72
2021/11/05 04:09:28;;;;;;;;;;;22.30;30.00;;;;;;479542;248;1129;-72
2021/11/05 04:11:29;;;;;;;;;;;22.60;29.70;;;;;;479483;248;1224;-73
2021/11/05 04:13:30;;;;;;;;;;;22.70;29.50;;;;;;479649;248;1120;-73
2021/11/05 04:15:32;;;;;;;;;;;22.70;29.50;;;;;;479577;248;935;-73
2021/11/05 04:17:33;;;;;;;;;;;22.80;29.40;;;;;;479397;248;2197;-73
2021/11/05 04:19:34;;;;;;;;;;;23.00;29.20;;;;;;479552;248;1014;-72
2021/11/05 04:21:36;;;;;;;;;;;23.10;29.10;;;;;;479485;248;1211;-72
2021/11/05 04:23:37;;;;;;;;;;;23.30;28.90;;;;;;479571;248;1201;-73
2021/11/05 04:25:38;;;;;;;;;;;23.30;28.90;;;;;;479572;248;1206;-73
2021/11/05 04:27:40;;;;;;;;;;;23.30;28.80;;;;;;479513;248;1199;-73
2021/11/05 04:29:41;;;;;;;;;;;23.50;28.80;;;;;;479580;248;968;-73
2021/11/05 04:31:43;;;;;;;;;;;23.50;28.80;;;;;;479500;248;1220;-73
2021/11/05 04:33:44;;;;;;;;;;;23.50;28.60;;;;;;479578;248;1202;-73
2021/11/05 04:35:45;;;;;;;;;;;23.50;28.80;;;;;;479593;248;1070;-73
2021/11/05 04:37:46;;;;;;;;;;;23.70;28.60;;;;;;479502;248;2190;-73
2021/11/05 04:39:48;;;;;;;;;;;23.70;28.50;;;;;;479615;248;1037;-73
2021/11/05 04:41:49;;;;;;;;;;;23.70;28.50;;;;;;479558;248;969;-72
2021/11/05 04:43:51;;;;;;;;;;;23.80;28.50;;;;;;479628;248;964;-72
2021/11/05 04:45:52;;;;;;;;;;;23.80;28.40;;;;;;479586;248;1054;-72
2021/11/05 04:47:53;;;;;;;;;;;23.80;28.40;;;;;;479639;248;1177;-72
2021/11/05 04:49:55;;;;;;;;;;;23.70;28.40;;;;;;479601;248;998;-72
2021/11/05 04:51:56;;;;;;;;;;;23.70;28.40;;;;;;479448;248;1230;-72
2021/11/05 04:53:57;;;;;;;;;;;23.80;28.50;;;;;;479486;248;1289;-72
2021/11/05 04:55:59;;;;;;;;;;;23.90;28.40;;;;;;479531;248;1043;-72
2021/11/05 04:58:00;;;;;;;;;;;23.80;28.30;;;;;;479494;248;2189;-72
2021/11/05 05:00:02;;;;;;;;;;;23.90;28.30;;;;;;479518;248;1119;-72
2021/11/05 05:02:03;;;;;;;;;;;23.80;28.30;;;;;;479553;248;1089;-72
2021/11/05 05:04:04;;;;;;;;;;;23.80;28.30;;;;;;479560;248;1178;-72
2021/11/05 05:06:06;;;;;;;;;;;23.70;28.40;;;;;;479447;248;1099;-72
2021/11/05 05:08:07;;;;;;;;;;;23.70;28.40;;;;;;479470;248;1110;-72
2021/11/05 05:10:08;;;;;;;;;;;23.70;28.40;;;;;;479537;248;1055;-72
2021/11/05 05:12:10;;;;;;;;;;;23.60;28.40;;;;;;479434;248;1310;-72
2021/11/05 05:14:11;;;;;;;;;;;23.50;28.50;;;;;;479543;248;989;-72
2021/11/05 05:16:12;;;;;;;;;;;23.50;28.50;;;;;;479472;248;1211;-72
2021/11/05 05:18:15;;;;;;;;;;;23.10;28.70;;;;;;479550;248;2194;-72
2021/11/05 05:20:15;;;;;;;;;;;23.10;28.80;;;;;;479517;248;1352;-72
2021/11/05 05:22:16;;;;;;;;;;;22.90;28.90;;;;;;479398;248;1037;-72
2021/11/05 05:24:18;;;;;;;;;;;22.50;29.20;;;;;;479398;248;1195;-72
2021/11/05 05:26:19;;;;;;;;;;;21.90;29.70;;;;;;479427;246;1267;-72
2021/11/05 05:28:20;;;;;;;;;;;21.60;30.00;;;;;;479927;240;1204;-72
2021/11/05 05:30:22;;;;;;;;;;;21.70;30.20;;;;;;479490;248;1093;-72
2021/11/05 05:32:23;;;;;;;;;;;21.50;30.30;;;;;;479424;248;1197;-72
2021/11/05 05:34:24;;;;;;;;;;;21.40;30.40;;;;;;479452;248;1014;-72
2021/11/05 05:36:26;;;;;;;;;;;21.30;30.50;;;;;;479428;248;2349;-72
2021/11/05 05:38:27;;;;;;;;;;;21.40;30.50;;;;;;479466;248;1136;-72
2021/11/05 05:40:28;;;;;;;;;;;21.50;30.60;;;;;;479502;248;982;-72
2021/11/05 05:42:30;;;;;;;;;;;21.30;30.60;;;;;;479238;248;999;-72
2021/11/05 05:44:31;;;;;;;;;;;21.10;30.80;;;;;;479262;248;998;-72
2021/11/05 05:46:33;;;;;;;;;;;21.10;30.90;;;;;;479191;248;1034;-72
2021/11/05 05:48:34;;;;;;;;;;;21.00;31.00;;;;;;479271;248;1358;-72
2021/11/05 05:50:35;;;;;;;;;;;21.10;30.90;;;;;;479349;248;1040;-72
2021/11/05 05:52:36;;;;;;;;;;;21.00;31.00;;;;;;479408;248;1235;-72
2021/11/05 05:54:38;;;;;;;;;;;21.20;30.90;;;;;;479403;248;1299;-72
2021/11/05 05:56:39;;;;;;;;;;;21.30;30.80;;;;;;479216;248;2190;-72
2021/11/05 05:58:40;;;;;;;;;;;21.50;30.60;;;;;;479213;248;978;-72
2021/11/05 06:00:41;;;;;;;;;;;21.50;30.30;;;;;;479297;248;1098;-72
2021/11/05 06:02:43;;;;;;;;;;;21.60;30.40;;;;;;479399;248;1246;-72
2021/11/05 06:04:44;;;;;;;;;;;21.60;30.20;;;;;;479388;248;974;-72
2021/11/05 06:06:45;;;;;;;;;;;21.70;30.10;;;;;;479334;248;1145;-72
2021/11/05 06:08:47;;;;;;;;;;;21.90;30.00;;;;;;479392;248;1076;-72
2021/11/05 06:10:48;;;;;;;;;;;21.80;30.10;;;;;;479366;248;1180;-73
2021/11/05 06:12:49;;;;;;;;;;;21.80;30.00;;;;;;479454;248;965;-73
2021/11/05 06:14:51;;;;;;;;;;;22.00;30.00;;;;;;479403;248;1062;-72
2021/11/05 06:16:53;;;;;;;;;;;22.00;29.90;;;;;;479191;248;2126;-72
2021/11/05 06:18:54;;;;;;;;;;;22.10;29.90;;;;;;479184;248;1100;-72
2021/11/05 06:20:55;;;;;;;;;;;22.20;29.80;;;;;;479187;244;1461;-72
2021/11/05 06:22:56;;;;;;;;;;;22.20;29.80;;;;;;479189;248;1030;-72
2021/11/05 06:24:59;;;;;;;;;;;22.30;29.70;;;;;;479233;248;1206;-72
2021/11/05 06:26:59;;;;;;;;;;;22.10;29.80;;;;;;479244;248;1307;-72
2021/11/05 06:29:03;;;;;;;;;;;22.10;29.90;;;;;;479246;248;983;-72
2021/11/05 06:31:02;;;;;;;;;;;22.20;29.70;;;;;;479047;248;1244;-72
2021/11/05 06:33:03;;;;;;;;;;;22.30;29.60;;;;;;479223;248;1178;-72
2021/11/05 06:35:04;;;;;;;;;;;22.40;29.60;;;;;;479137;248;1037;-72
2021/11/05 06:37:06;;;;;;;;;;;22.30;29.70;;;;;;479192;248;2342;-73
2021/11/05 06:39:07;;;;;;;;;;;22.20;29.70;;;;;;479252;248;1224;-73
2021/11/05 06:41:11;;;;;;;;;;;22.30;29.70;;;;;;479119;248;1377;-73
2021/11/05 06:43:10;;;;;;;;;;;22.30;29.70;;;;;;479077;248;1315;-73
2021/11/05 06:45:11;;;;;;;;;;;22.40;29.50;;;;;;479154;248;967;-73
2021/11/05 06:47:12;;;;;;;;;;;22.60;29.40;;;;;;479092;248;1335;-73
2021/11/05 06:49:13;;;;;;;;;;;22.50;29.50;;;;;;479018;248;1031;-73
2021/11/05 06:51:15;;;;;;;;;;;22.30;29.50;;;;;;479086;248;1282;-73
2021/11/05 06:53:16;;;;;;;;;;;22.20;29.70;;;;;;479105;248;1000;-72
2021/11/05 06:55:17;;;;;;;;;;;22.10;29.70;;;;;;479166;248;1056;-72
2021/11/05 06:57:19;;;;;;;;;;;22.20;29.70;;;;;;478963;248;2185;-72
2021/11/05 06:59:20;;;;;;;;;;;22.00;29.80;;;;;;478939;248;1091;-72
2021/11/05 07:01:21;;;;;;;;;;;21.90;29.90;;;;;;478947;248;1360;-72
2021/11/05 07:03:23;;;;;;;;;;;21.80;30.00;;;;;;479107;248;1034;-72
2021/11/05 07:05:24;;;;;;;;;;;21.80;30.20;;;;;;479067;248;964;-72
2021/11/05 07:07:26;;;;;;;;;;;21.70;30.20;;;;;;478908;248;1102;-72
2021/11/05 07:09:27;;;;;;;;;;;21.50;30.30;;;;;;478982;248;1046;-72
2021/11/05 07:11:28;;;;;;;;;;;21.30;30.60;;;;;;478967;248;1273;-72
2021/11/05 07:13:30;;;;;;;;;;;21.20;30.80;;;;;;479104;248;1042;-73
2021/11/05 07:15:31;;;;;;;;;;;21.10;30.90;;;;;;479066;248;1086;-73
2021/11/05 07:17:32;;;;;;;;;;;21.00;31.20;;;;;;478985;248;2187;-73
2021/11/05 07:19:34;;;;;;;;;;;20.90;31.30;;;;;;478962;248;1063;-72
2021/11/05 07:21:35;;;;;;;;;;;20.90;31.40;;;;;;478825;246;1187;-72
2021/11/05 07:23:36;;;;;;;;;;;20.90;31.40;;;;;;478941;248;988;-72
2021/11/05 07:25:38;;;;;;;;;;;20.80;31.50;;;;;;478889;248;1158;-72
2021/11/05 07:27:39;;;;;;;;;;;20.80;31.50;;;;;;478956;248;1087;-72
2021/11/05 07:29:42;;;;;;;;;;;20.80;31.60;;;;;;478896;248;1076;-72
2021/11/05 07:31:42;;;;;;;;;;;20.80;31.70;;;;;;478806;248;1422;-72
2021/11/05 07:33:43;;;;;;;;;;;20.90;31.60;;;;;;478786;248;1046;-73
2021/11/05 07:35:45;;;;;;;;;;;20.80;31.70;;;;;;479246;240;1276;-72
2021/11/05 07:37:46;;;;;;;;;;;20.90;31.60;;;;;;478883;248;2201;-72
2021/11/05 07:39:47;;;;;;;;;;;21.10;31.40;;;;;;478949;248;1051;-72
2021/11/05 07:41:49;;;;;;;;;;;21.20;31.40;;;;;;478805;248;1301;-73
2021/11/05 07:43:50;;;;;;;;;;;21.20;31.20;;;;;;478699;248;998;-73
2021/11/05 07:45:51;;;;;;;;;;;21.20;31.20;;;;;;478565;245;1216;-72
2021/11/05 07:47:55;;;;;;;;;;;21.30;31.10;;;;;;478896;248;1081;-72
2021/11/05 07:49:55;;;;;;;;;;;21.30;31.10;;;;;;478914;248;1372;-72
2021/11/05 07:51:57;;;;;;;;;;;21.50;31.00;;;;;;478906;248;1122;-72
2021/11/05 07:53:58;;;;;;;;;;;21.60;30.90;;;;;;478601;248;1144;-72
2021/11/05 07:55:59;;;;;;;;;;;21.60;30.90;;;;;;478644;248;1331;-72
2021/11/05 07:58:01;;;;;;;;;;;21.70;31.00;;;;;;478755;248;2200;-72
2021/11/05 08:00:02;;;;;;;;;;;21.70;30.80;;;;;;478739;248;1023;-72
2021/11/05 08:02:03;;;;;;;;;;;21.90;30.80;;;;;;478730;248;1079;-72
2021/11/05 08:04:05;;;;;;;;;;;21.80;30.70;;;;;;478609;248;1035;-72
2021/11/05 08:06:06;;;;;;;;;;;22.20;30.60;;;;;;478553;248;1363;-72
2021/11/05 08:08:07;;;;;;;;;;;22.60;30.00;;;;;;478663;248;1132;-72
2021/11/05 08:10:09;;;;;;;;;;;22.90;29.80;;;;;;478629;248;1037;-72
2021/11/05 08:12:10;;;;;;;;;;;23.10;29.50;;;;;;478511;248;1210;-72
2021/11/05 08:14:11;;;;;;;;;;;23.30;29.30;;;;;;478495;248;1262;-72
2021/11/05 08:16:13;;;;;;;;;;;23.60;29.20;;;;;;478379;245;1401;-72
2021/11/05 08:18:14;;;;;;;;;;;23.50;29.20;;;;;;478403;248;2183;-72
2021/11/05 08:20:15;;;;;;;;;;;23.70;29.00;;;;;;478545;248;968;-72
2021/11/05 08:22:17;;;;;;;;;;;23.80;28.90;;;;;;478515;248;1173;-72
2021/11/05 08:24:18;;;;;;;;;;;23.90;29.00;;;;;;478477;248;1313;-72
2021/11/05 08:26:19;;;;;;;;;;;23.90;28.90;;;;;;478403;248;1222;-72
2021/11/05 08:28:20;;;;;;;;;;;24.00;28.80;;;;;;478641;248;1199;-72
2021/11/05 08:30:22;;;;;;;;;;;24.00;28.90;;;;;;478435;248;1073;-72
2021/11/05 08:32:23;;;;;;;;;;;24.00;28.90;;;;;;478561;248;1084;-72
2021/11/05 08:34:24;;;;;;;;;;;24.00;29.00;;;;;;478644;248;1174;-72
2021/11/05 08:36:26;;;;;;;;;;;23.90;29.00;;;;;;478473;245;1091;-72
2021/11/05 08:38:27;;;;;;;;;;;24.00;29.00;;;;;;478686;248;2130;-73
2021/11/05 08:40:28;;;;;;;;;;;23.80;29.20;;;;;;478654;248;939;-72
2021/11/05 08:42:30;;;;;;;;;;;23.80;29.20;;;;;;478466;248;1218;-73
2021/11/05 08:44:32;;;;;;;;;;;23.80;29.20;;;;;;478585;248;1044;-72
2021/11/05 08:46:32;;;;;;;;;;;23.70;29.40;;;;;;478581;248;1222;-72
2021/11/05 08:48:34;;;;;;;;;;;23.40;29.70;;;;;;478574;246;1177;-72
2021/11/05 08:50:35;;;;;;;;;;;23.40;29.70;;;;;;478640;248;1002;-72
2021/11/05 08:52:36;;;;;;;;;;;23.40;29.80;;;;;;478530;248;1176;-72
2021/11/05 08:54:38;;;;;;;;;;;23.20;30.00;;;;;;478643;248;1015;-72
2021/11/05 08:56:39;;;;;;;;;;;22.90;30.10;;;;;;478450;248;1331;-72
2021/11/05 08:58:40;;;;;;;;;;;22.90;30.20;;;;;;478537;248;2182;-72
2021/11/05 09:00:42;;;;;;;;;;;22.70;30.50;;;;;;478454;248;1096;-72
2021/11/05 09:02:43;;;;;;;;;;;22.80;30.50;;;;;;478426;248;1096;-72
2021/11/05 09:04:44;;;;;;;;;;;22.60;30.70;;;;;;478463;248;1096;-72
2021/11/05 09:06:46;;;;;;;;;;;22.70;30.60;;;;;;478613;248;1433;-72
2021/11/05 09:08:49;;;;;;;;;;;22.80;30.80;;;;;;478607;248;987;-72
2021/11/05 09:10:48;;;;;;;;;;;22.60;30.80;;;;;;478419;248;1317;-72
2021/11/05 09:12:50;;;;;;;;;;;22.40;30.90;;;;;;478949;240;1118;-72
2021/11/05 09:14:51;;;;;;;;;;;22.60;31.10;;;;;;478456;248;1037;-72
2021/11/05 09:16:52;;;;;;;;;;;22.20;31.20;;;;;;478608;248;1214;-72
2021/11/05 09:18:54;;;;;;;;;;;22.60;30.80;;;;;;478989;248;2194;-72
2021/11/05 09:20:55;;;;;;;;;;;22.50;31.20;;;;;;479514;248;1233;-72
2021/11/05 09:22:56;;;;;;;;;;;22.70;30.90;;;;;;479054;248;1064;-72
2021/11/05 09:24:57;;;;;;;;;;;22.70;30.80;;;;;;479112;248;827;-72
2021/11/05 09:26:59;;;;;;;;;;;22.40;31.10;;;;;;479234;248;1198;-72
2021/11/05 09:29:00;;;;;;;;;;;22.80;30.70;;;;;;478625;248;1059;-72
2021/11/05 09:31:03;;;;;;;;;;;22.90;30.50;;;;;;478613;248;1228;-72
2021/11/05 09:33:03;;;;;;;;;;;23.10;30.50;;;;;;478673;248;1359;-72
2021/11/05 09:35:06;;;;;;;;;;;23.40;30.10;;;;;;478615;248;1103;-73
2021/11/05 09:37:06;;;;;;;;;;;23.60;29.90;;;;;;478838;248;1455;-73
2021/11/05 09:39:07;;;;;;;;;;;23.30;30.00;;;;;;478792;248;2189;-73
2021/11/05 09:41:08;;;;;;;;;;;23.70;29.80;;;;;;478659;248;1142;-73
2021/11/05 09:43:10;;;;;;;;;;;23.80;29.70;;;;;;478447;248;1160;-73
2021/11/05 09:45:11;;;;;;;;;;;23.80;29.70;;;;;;478601;248;1126;-72
2021/11/05 09:47:14;;;;;;;;;;;23.90;29.60;;;;;;478560;248;1248;-72
2021/11/05 09:49:15;;;;;;;;;;;24.00;29.60;;;;;;478524;248;1409;-72
2021/11/05 09:51:16;;;;;;;;;;;24.10;29.60;;;;;;478553;245;1122;-72
2021/11/05 09:53:17;;;;;;;;;;;24.00;29.70;;;;;;478863;248;946;-73
2021/11/05 09:55:19;;;;;;;;;;;23.90;29.60;;;;;;478418;248;1022;-73
2021/11/05 09:57:20;;;;;;;;;;;24.10;29.60;;;;;;478342;248;1353;-72
2021/11/05 09:59:21;;;;;;;;;;;24.00;29.60;;;;;;478336;248;2211;-72
2021/11/05 10:01:22;;;;;;;;;;;24.20;29.60;;;;;;478275;245;1082;-73
2021/11/05 10:03:24;;;;;;;;;;;24.30;29.50;;;;;;478534;248;1043;-72
2021/11/05 10:05:25;;;;;;;;;;;24.40;29.30;;;;;;478451;248;984;-72
2021/11/05 10:07:26;;;;;;;;;;;24.40;29.30;;;;;;478159;248;1047;-73
2021/11/05 10:09:28;;;;;;;;;;;24.30;29.40;;;;;;478353;248;1038;-73
2021/11/05 10:11:29;;;;;;;;;;;24.40;29.30;;;;;;478306;247;1225;-73
2021/11/05 10:13:30;;;;;;;;;;;24.20;29.60;;;;;;478459;248;1220;-73
2021/11/05 10:15:32;;;;;;;;;;;24.20;29.40;;;;;;478405;248;1215;-72
2021/11/05 10:17:33;;;;;;;;;;;24.10;29.60;;;;;;478362;248;1085;-73
2021/11/05 10:19:34;;;;;;;;;;;24.10;29.60;;;;;;478480;248;2178;-73
2021/11/05 10:21:38;;;;;;;;;;;24.00;29.60;;;;;;478353;248;1211;-73
2021/11/05 10:23:38;;;;;;;;;;;23.70;30.00;;;;;;478233;248;2163;-74
2021/11/05 10:25:38;;;;;;;;;;;23.40;30.20;;;;;;478209;248;1459;-73
2021/11/05 10:27:40;;;;;;;;;;;23.50;30.10;;;;;;478427;248;1350;-73
2021/11/05 10:29:41;;;;;;;;;;;23.50;30.30;;;;;;478535;248;1042;-72
2021/11/05 10:31:44;;;;;;;;;;;23.40;30.20;;;;;;478686;245;1257;-72
2021/11/05 10:33:44;;;;;;;;;;;23.40;30.50;;;;;;478527;248;2173;-72
2021/11/05 10:35:45;;;;;;;;;;;23.00;30.60;;;;;;478358;248;1196;-73
2021/11/05 10:37:46;;;;;;;;;;;23.00;30.80;;;;;;478456;248;1157;-73
2021/11/05 10:39:48;;;;;;;;;;;23.30;30.60;;;;;;478540;248;2120;-73
2021/11/05 10:41:49;;;;;;;;;;;23.10;30.70;;;;;;478244;248;1255;-73
2021/11/05 10:43:50;;;;;;;;;;;22.90;31.00;;;;;;478376;248;1228;-73
2021/11/05 10:45:52;;;;;;;;;;;22.40;31.30;;;;;;478404;248;1207;-73
2021/11/05 10:47:53;;;;;;;;;;;22.60;31.10;;;;;;478278;248;1152;-73
2021/11/05 10:49:54;;;;;;;;;;;22.60;31.60;;;;;;478443;248;1217;-72
2021/11/05 10:51:56;;;;;;;;;;;22.50;31.60;;;;;;478114;248;1128;-72
2021/11/05 10:53:57;;;;;;;;;;;22.60;31.30;;;;;;478279;248;1081;-73
2021/11/05 10:55:58;;;;;;;;;;;22.60;31.50;;;;;;478197;248;1422;-72
2021/11/05 10:58:01;;;;;;;;;;;22.70;31.30;;;;;;478437;247;1254;-73
2021/11/05 11:00:01;;;;;;;;;;;22.60;31.40;;;;;;478379;248;2191;-73
2021/11/05 11:02:02;;;;;;;;;;;23.10;30.90;;;;;;478608;248;1187;-73
2021/11/05 11:04:03;;;;;;;;;;;23.00;31.00;;;;;;478679;248;1110;-73
2021/11/05 11:06:05;;;;;;;;;;;23.10;30.90;;;;;;478545;248;1248;-73
2021/11/05 11:08:06;;;;;;;;;;;23.30;30.70;;;;;;478420;248;1065;-73
2021/11/05 11:10:07;;;;;;;;;;;23.30;30.60;;;;;;478499;248;1036;-73
2021/11/05 11:12:09;;;;;;;;;;;23.40;30.40;;;;;;478584;248;1031;-73
2021/11/05 11:14:12;;;;;;;;;;;23.60;30.20;;;;;;478630;248;1173;-73
2021/11/05 11:16:11;;;;;;;;;;;23.60;30.30;;;;;;478483;248;2215;-73
2021/11/05 11:18:13;;;;;;;;;;;23.80;30.00;;;;;;478630;248;971;-73
2021/11/05 11:20:14;;;;;;;;;;;23.80;30.00;;;;;;478458;248;2127;-72
2021/11/05 11:22:15;;;;;;;;;;;24.10;29.90;;;;;;478382;248;1033;-72
2021/11/05 11:24:17;;;;;;;;;;;24.10;29.70;;;;;;478524;247;1139;-73
2021/11/05 11:26:18;;;;;;;;;;;24.10;29.70;;;;;;478449;248;1120;-73
2021/11/05 11:28:19;;;;;;;;;;;24.10;29.70;;;;;;478731;248;1219;-73
2021/11/05 11:30:21;;;;;;;;;;;24.40;29.60;;;;;;478645;248;1084;-73
2021/11/05 11:32:22;;;;;;;;;;;24.30;29.60;;;;;;478696;248;1141;-73
2021/11/05 11:34:23;;;;;;;;;;;24.20;29.70;;;;;;478864;248;1114;-64
2021/11/05 11:36:25;;;;;;;;;;;24.20;29.70;;;;;;478785;246;1190;-65
2021/11/05 11:38:26;;;;;;;;;;;24.50;29.40;;;;;;478571;248;1082;-63
2021/11/05 11:40:27;;;;;;;;;;;24.70;29.30;;;;;;478563;248;2166;-63
2021/11/05 11:42:29;;;;;;;;;;;24.60;29.30;;;;;;478692;248;1313;-62
2021/11/05 11:44:30;;;;;;;;;;;24.40;29.70;;;;;;478743;248;1240;-60
2021/11/05 11:46:31;;;;;;;;;;;24.00;30.00;;;;;;478722;248;1134;-62
2021/11/05 11:48:33;;;;;;;;;;;23.80;30.40;;;;;;478774;248;1179;-61
2021/11/05 11:50:37;;;;;;;;;;;23.70;30.60;;;;;;478767;248;1056;-62
2021/11/05 11:52:35;;;;;;;;;;;23.60;30.80;;;;;;478371;245;2102;-62
2021/11/05 11:54:37;;;;;;;;;;;23.50;31.00;;;;;;478589;248;1133;-62
2021/11/05 11:56:38;;;;;;;;;;;23.40;31.00;;;;;;478580;248;1185;-61